createdAt,value
2023-02-23T00:01:38.576Z,8.31
2023-02-23T00:04:05.337Z,8.28
2023-02-23T00:06:33.938Z,8.28
2023-02-23T00:09:01.307Z,8.28
2023-02-23T00:11:28.703Z,8.26
2023-02-23T00:13:56.900Z,8.25
2023-02-23T00:16:25.484Z,8.23
2023-02-23T00:18:55.271Z,8.24
2023-02-23T00:21:32.344Z,8.24
2023-02-23T00:24:01.794Z,8.20
2023-02-23T00:26:33.861Z,8.19
2023-02-23T00:29:06.180Z,8.19
2023-02-23T00:31:32.880Z,8.19
2023-02-23T00:34:02.544Z,8.17
2023-02-23T00:36:32.011Z,8.16
2023-02-23T00:39:00.825Z,8.15
2023-02-23T00:41:30.636Z,8.13
2023-02-23T00:44:00.959Z,8.12
2023-02-23T00:46:30.249Z,8.11
2023-02-23T00:48:59.094Z,8.09
2023-02-23T00:51:27.806Z,8.07
2023-02-23T00:53:55.250Z,8.08
2023-02-23T00:56:22.215Z,8.08
2023-02-23T00:58:49.084Z,8.04
2023-02-23T01:01:18.052Z,8.02
2023-02-23T01:03:45.453Z,7.99
2023-02-23T01:06:14.853Z,7.99
2023-02-23T01:08:44.116Z,7.99
2023-02-23T01:11:16.000Z,7.93
2023-02-23T01:13:45.051Z,7.95
2023-02-23T01:16:15.436Z,7.90
2023-02-23T01:18:44.609Z,7.87
2023-02-23T01:21:19.358Z,7.84
2023-02-23T01:23:46.074Z,7.82
2023-02-23T01:26:21.194Z,7.81
2023-02-23T01:28:56.445Z,7.78
2023-02-23T01:31:24.984Z,7.79
2023-02-23T01:33:56.296Z,7.75
2023-02-23T01:36:23.121Z,7.71
2023-02-23T01:38:49.842Z,7.68
2023-02-23T01:41:17.303Z,7.68
2023-02-23T01:44:08.384Z,7.65
2023-02-23T01:46:39.158Z,7.64
2023-02-23T01:49:10.749Z,7.64
2023-02-23T01:51:43.010Z,7.58
2023-02-23T01:54:15.961Z,7.57
2023-02-23T01:56:47.593Z,7.56
2023-02-23T01:59:15.894Z,7.53
2023-02-23T02:01:43.782Z,7.52
2023-02-23T02:04:16.481Z,7.51
2023-02-23T02:06:45.824Z,7.52
2023-02-23T02:09:19.620Z,7.54
2023-02-23T02:11:54.113Z,7.54
2023-02-23T02:14:29.260Z,7.53
2023-02-23T02:17:27.566Z,7.49
2023-02-23T02:20:06.175Z,7.52
2023-02-23T02:22:42.500Z,7.51
2023-02-23T02:25:14.978Z,7.50
2023-02-23T02:27:50.476Z,7.50
2023-02-23T02:30:40.785Z,7.49
2023-02-23T02:33:19.172Z,7.48
2023-02-23T02:36:04.237Z,7.48
2023-02-23T02:38:40.966Z,7.46
2023-02-23T02:41:28.488Z,7.44
2023-02-23T02:44:09.115Z,7.45
2023-02-23T02:46:40.460Z,7.43
2023-02-23T02:49:17.776Z,7.44
2023-02-23T02:52:12.139Z,7.44
2023-02-23T02:54:43.915Z,7.44
2023-02-23T02:57:12.993Z,7.44
2023-02-23T03:00:07.158Z,7.44
2023-02-23T03:02:56.298Z,7.46
2023-02-23T03:05:47.660Z,7.45
2023-02-23T03:09:07.192Z,7.45
2023-02-23T03:11:59.897Z,7.46
2023-02-23T03:15:11.318Z,7.44
2023-02-23T03:18:12.790Z,7.44
2023-02-23T03:21:05.412Z,7.45
2023-02-23T03:24:17.189Z,7.44
2023-02-23T03:27:31.417Z,7.41
2023-02-23T03:30:40.075Z,7.41
2023-02-23T03:33:36.944Z,7.39
2023-02-23T03:36:29.416Z,7.36
2023-02-23T03:39:25.973Z,7.33
2023-02-23T03:42:14.300Z,7.32
2023-02-23T03:45:03.211Z,7.33
2023-02-23T03:47:56.638Z,7.32
2023-02-23T03:50:48.619Z,7.33
2023-02-23T03:53:38.031Z,7.31
2023-02-23T03:56:25.377Z,7.32
2023-02-23T03:59:15.603Z,7.32
2023-02-23T04:02:00.981Z,7.29
2023-02-23T04:04:47.949Z,7.27
2023-02-23T04:07:36.879Z,7.26
2023-02-23T04:10:23.577Z,7.25
2023-02-23T04:13:12.960Z,7.25
2023-02-23T04:15:44.224Z,7.25
2023-02-23T04:18:14.921Z,7.20
2023-02-23T04:20:41.538Z,7.20
2023-02-23T04:23:08.295Z,7.21
2023-02-23T04:25:35.438Z,7.20
2023-02-23T04:28:02.021Z,7.18
2023-02-23T04:30:29.631Z,7.20
2023-02-23T04:32:59.173Z,7.18
2023-02-23T04:35:27.859Z,7.17
2023-02-23T04:37:54.677Z,7.17
2023-02-23T04:40:23.985Z,7.17
2023-02-23T04:42:51.244Z,7.17
2023-02-23T04:45:18.464Z,7.15
2023-02-23T04:47:45.089Z,7.15
2023-02-23T04:50:12.835Z,7.13
2023-02-23T04:52:39.712Z,7.14
2023-02-23T04:55:08.435Z,7.11
2023-02-23T04:57:35.735Z,7.08
2023-02-23T05:00:04.413Z,7.07
2023-02-23T05:02:32.055Z,7.06
2023-02-23T05:04:58.818Z,7.05
2023-02-23T05:07:25.659Z,7.06
2023-02-23T05:09:52.309Z,7.03
2023-02-23T05:12:18.865Z,7.03
2023-02-23T05:14:45.441Z,7.02
2023-02-23T05:17:12.106Z,7.02
2023-02-23T05:19:38.695Z,6.99
2023-02-23T05:22:05.265Z,6.99
2023-02-23T05:24:31.883Z,6.99
2023-02-23T05:26:58.991Z,6.96
2023-02-23T05:29:25.828Z,6.97
2023-02-23T05:31:52.531Z,6.97
2023-02-23T05:34:19.134Z,6.98
2023-02-23T05:36:45.726Z,6.94
2023-02-23T05:39:12.297Z,6.93
2023-02-23T05:41:38.938Z,6.93
2023-02-23T05:44:05.588Z,6.92
2023-02-23T05:46:32.338Z,6.93
2023-02-23T05:49:00.986Z,6.92
2023-02-23T05:51:29.456Z,6.92
2023-02-23T05:53:56.039Z,6.92
2023-02-23T05:56:22.792Z,6.93
2023-02-23T05:58:57.958Z,6.92
2023-02-23T06:01:25.811Z,6.91
2023-02-23T06:03:52.658Z,6.92
2023-02-23T06:06:19.510Z,6.94
2023-02-23T06:08:46.341Z,6.92
2023-02-23T06:11:13.290Z,6.92
2023-02-23T06:13:40.380Z,6.93
2023-02-23T06:16:08.636Z,6.96
2023-02-23T06:18:35.804Z,6.96
2023-02-23T06:21:03.963Z,6.99
2023-02-23T06:23:31.672Z,6.99
2023-02-23T06:25:59.532Z,7.00
2023-02-23T06:28:27.794Z,6.99
2023-02-23T06:30:55.575Z,7.02
2023-02-23T06:33:22.756Z,7.05
2023-02-23T06:35:49.392Z,7.05
2023-02-23T06:38:16.005Z,7.07
2023-02-23T06:40:43.339Z,7.11
2023-02-23T06:43:10.106Z,7.15
2023-02-23T06:45:36.895Z,7.19
2023-02-23T06:48:03.979Z,7.22
2023-02-23T06:50:30.761Z,7.27
2023-02-23T06:52:57.677Z,7.31
2023-02-23T06:55:24.531Z,7.34
2023-02-23T06:57:53.463Z,7.39
2023-02-23T07:00:20.535Z,7.45
2023-02-23T07:02:47.277Z,7.51
2023-02-23T07:05:13.844Z,7.53
2023-02-23T07:07:40.479Z,7.57
2023-02-23T07:10:07.519Z,7.58
2023-02-23T07:12:34.118Z,7.62
2023-02-23T07:15:00.726Z,7.64
2023-02-23T07:17:27.360Z,7.66
2023-02-23T07:19:54.013Z,7.71
2023-02-23T07:22:20.817Z,7.74
2023-02-23T07:24:48.217Z,7.76
2023-02-23T07:27:14.741Z,7.78
2023-02-23T07:29:41.314Z,7.81
2023-02-23T07:32:07.958Z,7.81
2023-02-23T07:34:34.585Z,7.79
2023-02-23T07:37:01.252Z,7.81
2023-02-23T07:39:27.889Z,7.84
2023-02-23T07:41:54.400Z,7.88
2023-02-23T07:44:21.069Z,7.93
2023-02-23T07:46:47.685Z,7.96
2023-02-23T07:49:14.353Z,8.03
2023-02-23T07:51:41.355Z,8.06
2023-02-23T07:54:07.965Z,8.10
2023-02-23T07:56:35.440Z,8.16
2023-02-23T07:59:03.006Z,8.20
2023-02-23T08:01:29.677Z,8.27
2023-02-23T08:03:56.409Z,8.29
2023-02-23T08:06:23.007Z,8.31
2023-02-23T08:08:49.588Z,8.31
2023-02-23T08:11:16.364Z,8.33
2023-02-23T08:13:43.245Z,8.37
2023-02-23T08:16:10.001Z,8.44
2023-02-23T08:18:36.691Z,8.50
2023-02-23T08:21:05.010Z,8.49
2023-02-23T08:23:33.271Z,8.52
2023-02-23T08:26:01.156Z,8.57
2023-02-23T08:28:28.817Z,8.61
2023-02-23T08:30:55.594Z,8.55
2023-02-23T08:33:22.747Z,8.59
2023-02-23T08:35:49.317Z,8.66
2023-02-23T08:38:16.617Z,8.75
2023-02-23T08:40:43.461Z,8.83
2023-02-23T08:43:10.282Z,8.90
2023-02-23T08:45:39.599Z,8.93
2023-02-23T08:48:07.688Z,8.98
2023-02-23T08:50:34.423Z,8.98
2023-02-23T08:53:01.037Z,8.92
2023-02-23T08:55:27.618Z,8.96
2023-02-23T08:57:54.261Z,9.02
2023-02-23T09:00:21.307Z,9.07
2023-02-23T09:02:48.327Z,9.15
2023-02-23T09:05:15.500Z,9.16
2023-02-23T09:07:45.178Z,9.21
2023-02-23T09:10:17.496Z,9.21
2023-02-23T09:12:44.029Z,9.26
2023-02-23T09:15:12.456Z,9.34
2023-02-23T09:17:39.136Z,9.40
2023-02-23T09:20:06.635Z,9.48
2023-02-23T09:22:36.809Z,9.52
2023-02-23T09:25:03.835Z,9.58
2023-02-23T09:27:30.611Z,9.63
2023-02-23T09:29:57.252Z,9.63
2023-02-23T09:32:24.052Z,9.66
2023-02-23T09:34:52.538Z,9.71
2023-02-23T09:37:19.414Z,9.71
2023-02-23T09:39:46.123Z,9.75
2023-02-23T09:42:35.926Z,9.81
2023-02-23T09:45:31.091Z,9.89
2023-02-23T09:48:12.765Z,9.95
2023-02-23T09:50:42.790Z,9.95
2023-02-23T09:53:24.443Z,9.98
2023-02-23T09:55:54.802Z,9.94
2023-02-23T09:58:24.990Z,9.78
2023-02-23T10:01:10.078Z,9.75
2023-02-23T10:04:05.917Z,9.80
2023-02-23T10:06:33.725Z,9.86
2023-02-23T10:09:14.567Z,9.91
2023-02-23T10:12:01.292Z,9.99
2023-02-23T10:14:40.102Z,10.10
2023-02-23T10:17:06.561Z,10.15
2023-02-23T10:19:47.907Z,10.16
2023-02-23T10:22:16.011Z,10.19
2023-02-23T10:24:48.614Z,10.23
2023-02-23T10:27:21.336Z,10.25
2023-02-23T10:30:00.812Z,10.26
2023-02-23T10:32:48.825Z,10.26
2023-02-23T10:35:17.696Z,10.33
2023-02-23T10:37:45.398Z,10.37
2023-02-23T10:40:23.011Z,10.41
2023-02-23T10:42:50.880Z,10.44
2023-02-23T10:45:24.734Z,10.42
2023-02-23T10:48:03.985Z,10.41
2023-02-23T10:50:31.883Z,10.43
2023-02-23T10:53:16.407Z,10.48
2023-02-23T10:55:45.427Z,10.56
2023-02-23T10:58:19.216Z,10.58
2023-02-23T11:01:03.957Z,10.64
2023-02-23T11:03:35.674Z,10.69
2023-02-23T11:06:02.692Z,10.75
2023-02-23T11:08:37.661Z,10.78
2023-02-23T11:11:08.294Z,10.79
2023-02-23T11:13:41.000Z,10.80
2023-02-23T11:16:14.647Z,10.79
2023-02-23T11:18:56.936Z,10.72
2023-02-23T11:21:35.885Z,10.62
2023-02-23T11:24:22.440Z,10.65
2023-02-23T11:26:52.153Z,10.68
2023-02-23T11:29:35.336Z,10.58
2023-02-23T11:32:19.196Z,10.59
2023-02-23T11:34:49.309Z,10.63
2023-02-23T11:37:20.086Z,10.64
2023-02-23T11:40:01.082Z,10.61
2023-02-23T11:42:33.503Z,10.59
2023-02-23T11:45:07.702Z,10.56
2023-02-23T11:47:39.945Z,10.59
2023-02-23T11:50:08.099Z,10.65
2023-02-23T11:52:36.449Z,10.60
2023-02-23T11:55:07.063Z,10.61
2023-02-23T11:57:36.277Z,10.63
2023-02-23T12:00:12.053Z,10.73
2023-02-23T12:02:49.193Z,10.81
2023-02-23T12:05:23.249Z,10.69
2023-02-23T12:08:03.032Z,10.66
2023-02-23T12:10:51.938Z,10.63
2023-02-23T12:13:48.171Z,10.66
2023-02-23T12:16:30.993Z,10.75
2023-02-23T12:19:08.897Z,10.84
2023-02-23T12:21:44.309Z,10.92
2023-02-23T12:24:37.525Z,10.99
2023-02-23T12:27:04.011Z,11.04
2023-02-23T12:29:40.168Z,11.09
2023-02-23T12:32:14.545Z,11.14
2023-02-23T12:34:55.124Z,11.16
2023-02-23T12:37:42.868Z,11.18
2023-02-23T12:40:42.067Z,11.22
2023-02-23T12:43:18.800Z,11.17
2023-02-23T12:45:52.664Z,11.13
2023-02-23T12:48:48.238Z,11.17
2023-02-23T12:51:19.088Z,11.22
2023-02-23T12:53:45.828Z,11.28
2023-02-23T12:56:34.055Z,11.35
2023-02-23T12:59:13.439Z,11.36
2023-02-23T13:02:00.834Z,11.37
2023-02-23T13:05:13.143Z,11.46
2023-02-23T13:08:04.824Z,11.55
2023-02-23T13:10:39.173Z,11.64
2023-02-23T13:13:20.777Z,11.72
2023-02-23T13:16:12.350Z,11.79
2023-02-23T13:19:20.891Z,11.88
2023-02-23T13:22:19.458Z,12.03
2023-02-23T13:24:49.062Z,12.09
2023-02-23T13:27:27.292Z,12.18
2023-02-23T13:29:56.792Z,12.31
2023-02-23T13:32:32.067Z,12.42
2023-02-23T13:35:00.773Z,12.51
2023-02-23T13:37:35.002Z,12.62
2023-02-23T13:40:35.365Z,12.78
2023-02-23T13:43:17.724Z,12.88
2023-02-23T13:46:10.588Z,12.98
2023-02-23T13:48:56.801Z,13.07
2023-02-23T13:51:30.301Z,13.12
2023-02-23T13:54:23.012Z,13.16
2023-02-23T13:56:56.806Z,13.27
2023-02-23T13:59:36.904Z,13.39
2023-02-23T14:02:20.843Z,13.51
2023-02-23T14:04:47.716Z,13.53
2023-02-23T14:07:23.189Z,13.61
2023-02-23T14:10:00.129Z,13.60
2023-02-23T14:12:34.816Z,13.63
2023-02-23T14:15:37.826Z,13.70
2023-02-23T14:18:29.031Z,13.93
2023-02-23T14:21:28.895Z,14.14
2023-02-23T14:24:25.533Z,14.39
2023-02-23T14:27:04.628Z,14.45
2023-02-23T14:29:40.129Z,14.55
2023-02-23T14:32:12.868Z,14.72
2023-02-23T14:35:30.807Z,15.03
2023-02-23T14:38:09.186Z,15.07
2023-02-23T14:40:42.098Z,14.98
2023-02-23T14:43:38.272Z,14.97
2023-02-23T14:46:11.932Z,14.87
2023-02-23T14:48:42.293Z,14.84
2023-02-23T14:51:24.781Z,14.75
2023-02-23T14:53:53.600Z,14.41
2023-02-23T14:56:24.688Z,14.23
2023-02-23T14:58:54.997Z,14.18
2023-02-23T15:01:39.634Z,13.96
2023-02-23T15:04:16.866Z,13.91
2023-02-23T15:06:47.049Z,13.73
2023-02-23T15:09:22.457Z,13.67
2023-02-23T15:11:54.010Z,13.47
2023-02-23T15:14:27.864Z,13.43
2023-02-23T15:16:56.727Z,13.38
2023-02-23T15:19:27.925Z,13.28
2023-02-23T15:21:57.736Z,13.12
2023-02-23T15:24:31.328Z,12.95
2023-02-23T15:26:58.551Z,12.91
2023-02-23T15:29:31.523Z,12.79
2023-02-23T15:32:18.142Z,12.71
2023-02-23T15:34:45.408Z,12.52
2023-02-23T15:37:26.075Z,12.39
2023-02-23T15:40:02.488Z,12.29
2023-02-23T15:42:38.553Z,12.24
2023-02-23T15:45:20.001Z,12.08
2023-02-23T15:47:46.950Z,11.90
2023-02-23T15:50:27.611Z,11.85
2023-02-23T15:53:02.086Z,11.86
2023-02-23T15:55:35.486Z,11.87
2023-02-23T15:58:26.222Z,11.79
2023-02-23T16:01:06.159Z,11.63
2023-02-23T16:03:37.027Z,11.53
2023-02-23T16:06:05.205Z,11.51
2023-02-23T16:08:32.025Z,11.49
2023-02-23T16:11:14.777Z,11.47
2023-02-23T16:13:45.969Z,11.50
2023-02-23T16:16:19.458Z,11.49
2023-02-23T16:18:53.160Z,11.45
2023-02-23T16:21:25.302Z,11.38
2023-02-23T16:23:54.649Z,11.31
2023-02-23T16:26:33.524Z,11.19
2023-02-23T16:29:02.928Z,11.05
2023-02-23T16:31:44.857Z,10.96
2023-02-23T16:34:26.661Z,10.92
2023-02-23T16:37:01.900Z,10.93
2023-02-23T16:39:30.500Z,10.89
2023-02-23T16:42:00.586Z,10.86
2023-02-23T16:44:41.378Z,10.82
2023-02-23T16:47:09.710Z,10.77
2023-02-23T16:49:36.320Z,10.69
2023-02-23T16:52:12.937Z,10.64
2023-02-23T16:54:39.523Z,10.61
2023-02-23T16:57:22.348Z,10.62
2023-02-23T16:59:51.306Z,10.58
2023-02-23T17:02:19.506Z,10.57
2023-02-23T17:04:49.121Z,10.53
2023-02-23T17:07:17.403Z,10.48
2023-02-23T17:09:44.520Z,10.44
2023-02-23T17:12:21.734Z,10.36
2023-02-23T17:14:49.710Z,10.27
2023-02-23T17:17:18.073Z,10.19
2023-02-23T17:19:45.583Z,10.13
2023-02-23T17:22:13.012Z,10.04
2023-02-23T17:24:41.095Z,10.02
2023-02-23T17:27:07.777Z,9.94
2023-02-23T17:29:34.901Z,9.94
2023-02-23T17:32:02.511Z,9.92
2023-02-23T17:34:29.817Z,9.83
2023-02-23T17:36:56.361Z,9.77
2023-02-23T17:39:27.950Z,9.69
2023-02-23T17:41:55.118Z,9.66
2023-02-23T17:44:21.717Z,9.62
2023-02-23T17:46:48.550Z,9.63
2023-02-23T17:49:15.164Z,9.62
2023-02-23T17:51:42.059Z,9.57
2023-02-23T17:54:08.802Z,9.51
2023-02-23T17:56:35.679Z,9.49
2023-02-23T17:59:02.244Z,9.48
2023-02-23T18:01:29.031Z,9.48
2023-02-23T18:03:58.568Z,9.47
2023-02-23T18:06:25.256Z,9.46
2023-02-23T18:08:51.805Z,9.43
2023-02-23T18:11:19.795Z,9.37
2023-02-23T18:13:47.996Z,9.34
2023-02-23T18:16:16.067Z,9.32
2023-02-23T18:18:46.501Z,9.27
2023-02-23T18:21:18.538Z,9.19
2023-02-23T18:23:45.878Z,9.12
2023-02-23T18:26:15.020Z,9.07
2023-02-23T18:28:44.433Z,9.02
2023-02-23T18:31:21.112Z,9.02
2023-02-23T18:33:52.656Z,8.99
2023-02-23T18:36:35.332Z,8.98
2023-02-23T18:39:03.043Z,8.93
2023-02-23T18:41:31.267Z,8.92
2023-02-23T18:44:02.566Z,8.90
2023-02-23T18:46:29.626Z,8.83
2023-02-23T18:48:56.585Z,8.78
2023-02-23T18:51:25.705Z,8.75
2023-02-23T18:53:53.512Z,8.68
2023-02-23T18:56:25.021Z,8.66
2023-02-23T18:59:04.064Z,8.66
2023-02-23T19:01:37.610Z,8.66
2023-02-23T19:04:05.613Z,8.63
2023-02-23T19:06:33.207Z,8.59
2023-02-23T19:09:03.370Z,8.60
2023-02-23T19:11:32.413Z,8.59
2023-02-23T19:14:02.015Z,8.50
2023-02-23T19:16:31.261Z,8.46
2023-02-23T19:18:59.277Z,8.40
2023-02-23T19:21:26.057Z,8.32
2023-02-23T19:23:53.966Z,8.25
2023-02-23T19:26:21.455Z,8.19
2023-02-23T19:28:48.624Z,8.10
2023-02-23T19:31:19.692Z,8.11
2023-02-23T19:33:48.530Z,8.12
2023-02-23T19:36:17.906Z,8.14
2023-02-23T19:38:45.571Z,8.15
2023-02-23T19:41:14.940Z,8.15
2023-02-23T19:43:41.793Z,8.13
2023-02-23T19:46:17.264Z,8.13
2023-02-23T19:48:45.463Z,8.11
2023-02-23T19:51:13.444Z,8.06
2023-02-23T19:53:40.672Z,8.01
2023-02-23T19:56:12.631Z,7.99
2023-02-23T19:58:43.037Z,7.85
2023-02-23T20:01:11.827Z,7.82
2023-02-23T20:03:39.638Z,7.79
2023-02-23T20:06:07.200Z,7.79
2023-02-23T20:08:34.353Z,7.77
2023-02-23T20:11:00.989Z,7.76
2023-02-23T20:13:27.583Z,7.72
2023-02-23T20:16:05.567Z,7.69
2023-02-23T20:18:35.693Z,7.70
2023-02-23T20:21:17.722Z,7.75
2023-02-23T20:23:45.954Z,7.77
2023-02-23T20:26:26.312Z,7.78
2023-02-23T20:28:54.216Z,7.78
2023-02-23T20:31:26.579Z,7.78
2023-02-23T20:33:54.947Z,7.79
2023-02-23T20:36:23.294Z,7.81
2023-02-23T20:38:49.976Z,7.83
2023-02-23T20:41:17.616Z,7.85
2023-02-23T20:43:44.561Z,7.88
2023-02-23T20:46:15.771Z,7.91
2023-02-23T20:48:42.763Z,7.93
2023-02-23T20:51:12.988Z,7.90
2023-02-23T20:53:40.697Z,7.89
2023-02-23T20:56:09.345Z,7.87
2023-02-23T20:58:36.088Z,7.89
2023-02-23T21:01:06.830Z,7.84
2023-02-23T21:03:35.721Z,7.82
2023-02-23T21:06:02.354Z,7.76
2023-02-23T21:08:30.437Z,7.72
2023-02-23T21:10:57.025Z,7.73
2023-02-23T21:13:26.479Z,7.71
2023-02-23T21:16:01.064Z,7.66
2023-02-23T21:18:28.533Z,7.70
2023-02-23T21:20:56.846Z,7.71
2023-02-23T21:23:24.626Z,7.66
2023-02-23T21:25:53.134Z,7.61
2023-02-23T21:28:20.994Z,7.60
2023-02-23T21:30:47.725Z,7.59
2023-02-23T21:33:14.502Z,7.59
2023-02-23T21:35:41.108Z,7.55
2023-02-23T21:38:08.369Z,7.54
2023-02-23T21:40:35.740Z,7.55
2023-02-23T21:43:06.624Z,7.49
2023-02-23T21:45:33.265Z,7.49
2023-02-23T21:47:59.810Z,7.47
2023-02-23T21:50:26.852Z,7.48
2023-02-23T21:52:56.101Z,7.49
2023-02-23T21:55:22.885Z,7.50
2023-02-23T21:57:51.290Z,7.49
2023-02-23T22:00:20.965Z,7.51
2023-02-23T22:02:47.911Z,7.51
2023-02-23T22:05:16.032Z,7.52
2023-02-23T22:07:51.801Z,7.54
2023-02-23T22:10:20.455Z,7.56
2023-02-23T22:12:47.481Z,7.57
2023-02-23T22:15:15.928Z,7.59
2023-02-23T22:17:43.334Z,7.60
2023-02-23T22:20:10.904Z,7.59
2023-02-23T22:22:37.504Z,7.60
2023-02-23T22:25:06.155Z,7.63
2023-02-23T22:27:33.048Z,7.62
2023-02-23T22:30:01.485Z,7.62
2023-02-23T22:32:32.705Z,7.62
2023-02-23T22:35:01.023Z,7.64
2023-02-23T22:37:31.543Z,7.64
2023-02-23T22:40:01.354Z,7.65
2023-02-23T22:42:35.349Z,7.64
2023-02-23T22:45:02.062Z,7.64
2023-02-23T22:47:28.659Z,7.64
2023-02-23T22:49:55.418Z,7.65
2023-02-23T22:52:21.984Z,7.68
2023-02-23T22:54:48.562Z,7.68
2023-02-23T22:57:15.179Z,7.64
2023-02-23T22:59:54.498Z,7.64
2023-02-23T23:02:24.054Z,7.64
2023-02-23T23:04:54.177Z,7.61
2023-02-23T23:07:20.753Z,7.56
2023-02-23T23:09:47.362Z,7.56
2023-02-23T23:12:14.174Z,7.55
2023-02-23T23:14:40.797Z,7.54
2023-02-23T23:17:09.485Z,7.52
2023-02-23T23:19:39.129Z,7.51
2023-02-23T23:22:06.643Z,7.50
2023-02-23T23:24:33.237Z,7.48
2023-02-23T23:27:01.003Z,7.49
2023-02-23T23:29:32.432Z,7.49
2023-02-23T23:32:01.635Z,7.51
2023-02-23T23:34:28.468Z,7.47
2023-02-23T23:36:55.479Z,7.46
2023-02-23T23:39:23.828Z,7.43
2023-02-23T23:41:50.774Z,7.44
2023-02-23T23:44:19.872Z,7.44
2023-02-23T23:46:47.949Z,7.40
2023-02-23T23:49:17.226Z,7.38
2023-02-23T23:51:56.212Z,7.39
2023-02-23T23:54:26.848Z,7.37
2023-02-23T23:56:54.119Z,7.38
2023-02-23T23:59:22.813Z,7.35
